Latest Weather Observations for Tocal

IDN60801

Issued at 5:12 pm EDT Thursday 21 February 2019 (issued every 10 minutes, with the page automatically refreshed every 10 minutes)

About weather observations | Map of weather stations | Latest weather observations for NSW | Other Formats
Station Details ID: 061250 Name: TOCAL AWS Lat: -32.63 Lon: 151.59 Height: 30.0 m
Data from the previous 72 hours. | See also: Recent months at Tocal
Date/Time
EDT
Temp
°C
App
Temp
°C
Dew
Point
°C
Rel
Hum
%
Delta-T
°C
Wind Press
QNH
hPa
Press
MSL
hPa
Rain since
9am
mm
Dir  Spd
km/h
Gust
km/h
Spd
kts
Gust
kts
21/05:00pm 24.9 23.7 16.1 58 5.4 SE 17 26 9 14 - - 1.2
21/04:30pm 25.0 23.3 16.2 58 5.4 SE 20 32 11 17 - - 1.2
21/04:00pm 24.9 23.5 16.6 60 5.1 SSE 19 30 10 16 - - 1.2
21/03:30pm 24.9 23.5 16.6 60 5.1 SSE 19 33 10 18 - - 1.2
21/03:00pm 24.7 23.6 17.2 63 4.7 SE 19 33 10 18 - - 1.2
21/02:30pm 23.0 24.1 19.6 81 2.2 ESE 13 19 7 10 - - 1.2
21/02:00pm 23.5 23.5 19.0 76 2.9 ESE 17 28 9 15 - - 1.2
21/01:30pm 24.2 23.5 19.5 75 3.0 SE 22 35 12 19 - - 1.2
21/01:00pm 23.5 24.1 19.4 78 2.6 SSE 15 30 8 16 - - 1.2
21/12:30pm 22.6 22.4 19.4 82 2.0 ESE 19 33 10 18 - - 1.0
21/12:00pm 24.2 23.3 19.1 73 3.3 SE 22 33 12 18 - - 0.6
21/11:30am 24.7 24.2 20.0 75 3.0 SE 22 35 12 19 - - 0.6
21/11:00am 24.3 24.8 20.8 81 2.3 ESE 19 32 10 17 - - 0.6
21/10:30am 23.0 24.1 20.5 86 1.6 ESE 15 20 8 11 - - 0.6
21/10:00am 22.3 24.0 20.9 92 0.9 SSE 13 15 7 8 - - 0.6
21/09:30am 22.9 23.5 20.2 85 1.7 SSE 17 28 9 15 - - 0.0
21/09:00am 24.4 25.2 19.9 76 2.9 ESE 15 20 8 11 - - 0.0
21/08:30am 23.3 25.4 20.2 83 2.0 SSE 9 13 5 7 - - 0.0
21/08:00am 22.4 24.6 20.3 88 1.4 SSE 9 15 5 8 - - 0.0
21/07:30am 22.0 24.1 20.1 89 1.2 S 9 13 5 7 - - 0.0
21/07:00am 21.6 23.5 19.7 89 1.2 SW 9 13 5 7 - - 0.0
21/06:30am 21.7 23.0 19.4 87 1.5 SW 11 17 6 9 - - 0.0
21/06:00am 21.7 23.9 19.6 88 1.3 WSW 7 11 4 6 - - 0.0
21/05:30am 21.6 23.9 19.5 88 1.3 WSW 6 7 3 4 - - 0.0
21/05:00am 21.6 23.7 19.3 87 1.5 SSW 7 13 4 7 - - 0.0
21/04:30am 22.2 23.2 19.4 84 1.8 SSW 13 17 7 9 - - 0.0
21/04:00am 22.0 25.8 20.1 89 1.2 CALM 0 0 0 0 - - 0.0
21/03:30am 21.8 24.2 19.7 88 1.3 NW 6 7 3 4 - - 0.0
21/03:00am 21.8 24.2 19.7 88 1.3 S 6 9 3 5 - - 0.0
21/02:30am 21.7 24.5 19.6 88 1.3 WNW 4 7 2 4 - - 0.0
21/02:00am 22.2 25.8 19.7 86 1.6 CALM 0 0 0 0 - - 0.0
21/01:30am 22.0 25.6 19.7 87 1.5 CALM 0 0 0 0 - - 0.0
21/01:00am 21.9 25.5 19.8 88 1.3 CALM 0 0 0 0 - - 0.0
21/12:30am 21.9 25.4 19.6 87 1.5 CALM 0 0 0 0 - - 0.0
21/12:00am 21.3 23.2 19.0 87 1.5 NNW 7 7 4 4 - - 0.0
 
Date/Time
EDT
Temp
°C
App
Temp
°C
Dew
Point
°C
Rel
Hum
%
Delta-T
°C
Wind Press
QNH
hPa
Press
MSL
hPa
Rain since
9am
mm
Dir  Spd
km/h
Gust
km/h
Spd
kts
Gust
kts
20/11:30pm 21.9 24.1 19.3 85 1.7 S 6 7 3 4 - - 0.0
20/11:00pm 22.2 24.5 19.4 84 1.8 WSW 6 6 3 3 - - 0.0
20/10:30pm 22.6 - 19.4 82 2.0 - - - - - - - 0.0
20/10:00pm 23.0 26.1 19.6 81 2.2 SE 2 7 1 4 - - 0.0
20/09:30pm 23.2 25.5 19.4 79 2.4 SSE 6 9 3 5 - - 0.0
20/09:00pm 23.7 25.4 19.4 77 2.8 SE 9 13 5 7 - - 0.0
20/08:30pm 24.2 26.0 19.5 75 3.0 SE 9 13 5 7 - - 0.0
20/08:00pm 24.6 26.5 19.7 74 3.2 SSE 9 13 5 7 - - 0.0
20/07:30pm 24.8 26.6 19.6 73 3.4 SSE 9 17 5 9 - - 0.0
20/07:00pm 25.2 26.6 19.6 71 3.6 SSE 11 22 6 12 - - 0.0
20/06:30pm 26.1 27.3 20.0 69 4.0 SE 13 19 7 10 - - 0.0
20/06:00pm 26.3 27.0 19.7 67 4.3 SE 15 19 8 10 - - 0.0
20/05:30pm 27.3 28.7 20.4 66 4.5 S 13 22 7 12 - - 0.0
20/05:00pm 26.5 27.6 19.6 66 4.5 SSE 13 24 7 13 - - 0.0
20/04:30pm 27.3 28.1 19.9 64 4.8 SE 15 24 8 13 - - 0.0
20/04:00pm 27.4 28.4 20.2 65 4.7 SE 15 28 8 15 - - 0.0
20/03:30pm 28.5 29.1 20.2 60 5.5 SSE 17 28 9 15 - - 0.0
20/03:00pm 28.7 29.3 20.2 60 5.6 S 17 30 9 16 - - 0.0
20/02:30pm 28.9 28.7 19.8 58 6.0 SE 20 30 11 16 - - 0.0
20/02:00pm 29.6 30.4 19.0 53 6.9 SE 13 20 7 11 - - 0.0
20/01:30pm 30.1 32.2 20.1 55 6.6 SSE 9 15 5 8 - - 0.0
20/01:00pm 29.3 30.5 19.9 57 6.2 SE 13 24 7 13 - - 0.0
20/12:30pm 28.8 31.0 21.1 63 5.1 SW 11 17 6 9 - - 0.0
20/12:00pm 27.9 30.1 21.2 67 4.5 SE 11 17 6 9 - - 0.0
20/11:30am 26.5 29.0 21.0 72 3.6 SE 9 15 5 8 - - 0.0
20/11:00am 25.8 28.3 21.0 75 3.2 E 9 15 5 8 - - 0.0
20/10:30am 24.5 26.8 20.6 79 2.5 WSW 9 13 5 7 - - 0.0
20/10:00am 23.8 26.6 20.5 82 2.1 SW 6 9 3 5 - - 0.0
20/09:30am 23.3 26.0 20.6 85 1.8 W 7 11 4 6 - - 0.0
20/09:00am 22.7 25.9 20.4 87 1.5 SW 4 9 2 5 - - 2.4
20/08:30am 22.3 26.1 20.2 88 1.4 CALM 0 0 0 0 - - 2.4
20/08:00am 22.1 25.6 20.4 90 1.1 NE 2 6 1 3 - - 2.4
20/07:30am 21.9 24.5 20.0 89 1.2 SW 6 7 3 4 - - 2.0
20/07:00am 21.7 24.2 19.8 89 1.2 SSW 6 6 3 3 - - 2.0
20/06:30am 21.6 24.5 19.9 90 1.1 WSW 4 7 2 4 - - 2.0
20/06:00am 21.6 25.4 20.1 91 1.0 CALM 0 0 0 0 - - 2.0
20/05:30am 21.7 25.5 20.2 91 1.0 CALM 0 0 0 0 - - 2.0
20/05:00am 21.7 24.3 20.0 90 1.1 WSW 6 9 3 5 - - 2.0
20/04:30am 21.9 24.9 20.0 89 1.2 ENE 4 9 2 5 - - 2.0
20/04:00am 21.9 24.8 19.8 88 1.3 SW 4 7 2 4 - - 1.8
20/03:30am 22.0 24.0 19.9 88 1.3 SSW 9 13 5 7 - - 1.8
20/03:00am 22.1 24.4 19.8 87 1.5 S 7 11 4 6 - - 1.8
20/02:30am 22.2 24.4 19.7 86 1.6 SSE 7 11 4 6 - - 1.8
20/02:00am 22.3 24.6 19.8 86 1.6 S 7 13 4 7 - - 1.8
20/01:30am 22.4 24.9 19.9 86 1.6 SSW 6 9 3 5 - - 1.8
20/01:00am 22.4 24.9 19.9 86 1.6 SSW 6 11 3 6 - - 1.8
20/12:30am 22.5 24.6 20.2 87 1.5 SSW 9 13 5 7 - - 1.8
20/12:00am 22.6 24.5 20.5 88 1.4 SSW 11 13 6 7 - - 1.8
 
Date/Time
EDT
Temp
°C
App
Temp
°C
Dew
Point
°C
Rel
Hum
%
Delta-T
°C
Wind Press
QNH
hPa
Press
MSL
hPa
Rain since
9am
mm
Dir  Spd
km/h
Gust
km/h
Spd
kts
Gust
kts
19/11:30pm 22.9 25.9 20.8 88 1.4 E 6 9 3 5 - - 1.8
19/11:00pm 23.1 25.4 20.6 86 1.6 S 9 15 5 8 - - 1.4
19/10:30pm 23.5 25.5 20.8 85 1.8 SSW 11 19 6 10 - - 1.4
19/10:00pm 23.6 25.4 21.1 86 1.6 S 13 20 7 11 - - 1.4
19/09:30pm 23.7 26.0 21.4 87 1.5 S 11 19 6 10 - - 1.4
19/09:00pm 23.7 26.4 21.4 87 1.5 S 9 15 5 8 - - 1.4
19/08:30pm 23.9 26.2 21.4 86 1.6 SSW 11 17 6 9 - - 1.4
19/08:00pm 23.8 26.7 21.7 88 1.4 S 9 15 5 8 - - 1.4
19/07:30pm 23.7 27.1 22.0 90 1.1 SSW 7 11 4 6 - - 1.4
19/07:00pm 23.8 27.1 21.9 89 1.3 SW 7 13 4 7 - - 1.0
19/06:30pm 23.6 26.1 21.7 89 1.3 S 11 24 6 13 - - 1.0
19/06:00pm 25.0 25.6 20.3 75 3.1 SSE 17 32 9 17 - - 0.0
19/05:30pm 25.4 25.1 20.4 74 3.3 S 22 39 12 21 - - 0.0
19/05:00pm 26.9 26.6 20.3 67 4.3 S 22 33 12 18 - - 0.0
19/04:30pm 28.5 28.4 20.0 60 5.6 SSE 20 35 11 19 - - 0.0
19/04:00pm 28.1 26.8 19.1 58 5.8 SSE 24 39 13 21 - - 0.0
19/03:30pm 30.6 28.6 17.3 45 8.4 SSE 24 41 13 22 - - 0.0
19/03:07pm 33.4 30.4 16.7 36 10.6 SE 28 46 15 25 - - 0.0
19/03:00pm 33.5 30.7 16.4 36 10.8 SSE 26 43 14 23 - - 0.0
19/02:59pm 33.9 31.6 16.7 35 10.9 SSE 24 43 13 23 - - 0.0
19/02:30pm 39.0 34.1 8.6 16 17.5 W 24 41 13 22 - - 0.0
19/02:00pm 40.0 35.2 10.3 17 17.6 W 26 41 14 22 - - 0.0
19/01:30pm 38.5 34.4 10.0 18 16.7 WNW 22 37 12 20 - - 0.0
19/01:00pm 37.7 36.0 12.3 22 15.4 WSW 13 26 7 14 - - 0.0
19/12:30pm 36.0 35.6 14.1 27 13.5 E 9 11 5 6 - - 0.0
19/12:00pm 34.9 34.3 14.7 29 12.5 ESE 11 15 6 8 - - 0.0
19/11:30am 33.2 33.4 14.8 33 11.4 E 7 15 4 8 - - 0.0
19/11:00am 31.5 31.8 15.0 36 10.2 NE 7 11 4 6 - - 0.0
19/10:30am 29.0 29.1 15.5 44 8.3 NE 9 11 5 6 - - 0.0
19/10:00am 28.3 29.3 16.9 50 7.1 E 7 9 4 5 - - 0.0
19/09:30am 27.5 28.4 16.5 51 6.8 ENE 7 9 4 5 - - 0.0
19/09:00am 26.5 27.8 16.1 52 6.4 NW 4 9 2 5 - - 0.0
19/08:30am 26.3 28.7 17.1 57 5.7 CALM 0 0 0 0 - - 0.0
19/08:00am 23.1 24.7 16.9 68 3.8 ENE 4 7 2 4 - - 0.0
19/07:30am 22.5 23.8 17.0 71 3.4 E 6 11 3 6 - - 0.0
19/07:00am 22.7 23.8 16.7 69 3.7 SSW 6 9 3 5 - - 0.0
19/06:30am 22.0 23.1 17.2 74 3.0 NNW 7 9 4 5 - - 0.0
19/06:00am 21.9 22.7 17.3 75 2.8 NE 9 13 5 7 - - 0.0
19/05:30am 21.9 23.5 17.9 78 2.5 NNE 6 9 3 5 - - 0.0
19/05:00am 20.8 21.6 17.4 81 2.1 NE 9 13 5 7 - - 0.0
19/04:30am 21.1 23.2 17.3 79 2.3 NNE 2 7 1 4 - - 0.0
19/04:00am 21.5 22.9 17.3 77 2.6 WSW 6 9 3 5 - - 0.0
19/03:30am 21.5 23.2 17.1 76 2.7 ENE 4 7 2 4 - - 0.0
19/03:00am 22.3 22.7 17.2 73 3.1 SW 11 17 6 9 - - 0.0
19/02:30am 23.0 22.9 17.0 69 3.7 SSW 13 17 7 9 - - 0.0
19/02:00am 23.5 23.9 16.3 64 4.4 NW 9 11 5 6 - - 0.0
19/01:30am 25.1 26.5 16.5 59 5.3 W 4 7 2 4 - - 0.0
19/01:00am 26.4 26.9 16.6 55 6.1 NE 9 13 5 7 - - 0.0
19/12:30am 26.8 27.5 17.0 55 6.1 ENE 9 11 5 6 - - 0.0
19/12:00am 26.7 27.9 16.9 55 6.1 E 6 9 3 5 - - 0.0
 
Date/Time
EDT
Temp
°C
App
Temp
°C
Dew
Point
°C
Rel
Hum
%
Delta-T
°C
Wind Press
QNH
hPa
Press
MSL
hPa
Rain since
9am
mm
Dir  Spd
km/h
Gust
km/h
Spd
kts
Gust
kts
18/11:30pm 27.1 26.9 16.7 53 6.5 ENE 13 17 7 9 - - 0.0
18/11:00pm 27.5 27.7 16.8 52 6.7 NNE 11 15 6 8 - - 0.0
18/10:30pm 27.9 27.4 15.9 48 7.4 NE 13 19 7 10 - - 0.0
18/10:00pm 28.4 28.4 15.3 45 8.0 NNE 9 11 5 6 - - 0.0
18/09:30pm 29.3 27.6 14.7 41 8.9 NE 17 24 9 13 - - 0.0
18/09:00pm 29.7 27.4 14.7 40 9.1 NE 20 30 11 16 - - 0.0
18/08:30pm 30.2 28.1 14.7 39 9.5 NE 19 32 10 17 - - 0.0
18/08:00pm 30.8 31.1 14.4 36 10.0 SSW 6 9 3 5 - - 0.0
18/07:30pm 31.6 31.0 13.4 33 10.9 NE 9 15 5 8 - - 0.0
18/07:00pm 32.8 30.9 12.9 29 11.9 ENE 15 30 8 16 - - 0.0
18/06:30pm 33.9 31.5 13.9 30 12.2 ENE 19 32 10 17 - - 0.0
18/06:00pm 35.1 33.3 14.4 29 12.8 E 17 26 9 14 - - 0.0
18/05:30pm 35.9 33.9 15.6 30 12.8 ESE 20 28 11 15 - - 0.0

Other formats

Comma delimited format used in spreadsheet applications
http://www.bom.gov.au/fwo/IDN60801/IDN60801.94775.axf

JavaScript Object Notation format (JSON) in row-major order
http://www.bom.gov.au/fwo/IDN60801/IDN60801.94775.json

Data quality

Most of these data are generated automatically and are frequently updated. Quality checks on data are not normally performed. It is possible for incorrect values to appear. Refer to information at About Latest Weather Observations and please check the disclaimer before using these data.